Terminal Aerodrome Forecast
Issued by NWS

Home | Current Version | Previous Version | Text Only | Print | Product List | Glossary On
Versions: 1 2 3 4 5 6 7 8 9 10 11 12 13
108
FTUS42 TJSJ 231140 RRA
TAFJPS
TAF
TJPS 231140Z 2312/2412 11010KT P6SM FEW030
     FM231300 12013KT P6SM FEW030
     FM231630 15010G20KT P6SM VCSH SCT030 SCT060
     FM232300 08005KT P6SM FEW030
      AMD NOT SKED 2312/2403=

USA.gov is the U.S. government's official web portal to all federal, state and local government web resources and services.